Time;durP1;ratioP1;P1;durP2;ratioP2;P2;SDS_P1;SDS_P2;PMS_P1;PMS_P2;Temp;Humidity;BMP_temperature;BMP_pressure;BME280_temperature;BME280_humidity;BME280_pressure;Samples;Min_cycle;Max_cycle;Signal;HPM_P1;HPM_P2
2022/08/04 00:02:08;;;;;;;3.70;1.80;;;24.00;90.60;;;;;;10616332;27;20126;-76
2022/08/04 00:07:27;;;;;;;4.57;1.50;;;24.00;90.60;;;;;;10632763;27;20411;-76
2022/08/04 00:12:32;;;;;;;4.00;1.80;;;24.00;90.70;;;;;;10630136;27;20552;-76
2022/08/04 00:17:54;;;;;;;5.43;1.85;;;23.90;90.70;;;;;;10625044;27;20053;-76
2022/08/04 00:22:56;;;;;;;3.42;2.10;;;23.90;90.70;;;;;;10614395;27;20050;-76
2022/08/04 00:28:00;;;;;;;2.65;1.52;;;23.90;90.70;;;;;;10585422;27;20428;-76
2022/08/04 00:33:01;;;;;;;2.75;1.77;;;23.90;90.80;;;;;;10595845;27;20461;-76
2022/08/04 00:38:02;;;;;;;2.45;1.60;;;23.80;90.80;;;;;;10585350;27;20053;-76
2022/08/04 00:43:18;;;;;;;2.95;1.45;;;23.80;90.80;;;;;;10589053;27;20522;-76
2022/08/04 00:49:05;;;;;;;3.28;1.55;;;23.80;90.80;;;;;;10598882;27;20028;-76
2022/08/04 00:54:49;;;;;;;2.40;1.77;;;23.70;90.80;;;;;;10606551;27;20372;-76
2022/08/04 01:00:02;;;;;;;2.92;1.50;;;23.70;90.80;;;;;;10599538;27;20048;-76
2022/08/04 01:05:21;;;;;;;2.70;1.30;;;23.70;90.80;;;;;;10599213;27;20035;-76
2022/08/04 01:10:44;;;;;;;2.58;1.50;;;23.70;90.90;;;;;;10586915;27;20034;-76
2022/08/04 01:15:55;;;;;;;4.53;2.03;;;23.60;90.90;;;;;;10580071;27;20038;-76
2022/08/04 01:21:36;;;;;;;4.80;1.88;;;24.10;91.00;;;;;;10587364;27;20444;-76
2022/08/04 01:26:59;;;;;;;3.78;2.30;;;23.60;90.90;;;;;;10607948;27;20058;-76
2022/08/04 01:32:22;;;;;;;5.65;1.95;;;23.60;90.90;;;;;;10595808;27;20118;-76
2022/08/04 01:37:29;;;;;;;3.17;2.20;;;23.60;90.90;;;;;;10591027;27;20043;-76
2022/08/04 01:42:34;;;;;;;2.92;1.90;;;23.50;91.00;;;;;;10582544;27;20081;-76
2022/08/04 01:47:37;;;;;;;2.63;1.60;;;23.50;91.00;;;;;;10572135;27;20058;-75
2022/08/04 01:52:40;;;;;;;3.40;1.90;;;23.50;91.00;;;;;;10609406;27;20016;-76
2022/08/04 01:57:45;;;;;;;5.88;1.98;;;23.50;91.10;;;;;;10593369;27;20039;-76
2022/08/04 02:02:46;;;;;;;2.55;1.70;;;23.40;91.00;;;;;;10600247;27;20508;-76
2022/08/04 02:08:04;;;;;;;2.85;1.88;;;23.40;91.10;;;;;;10592043;27;20062;-76
2022/08/04 02:13:19;;;;;;;3.33;1.90;;;23.40;91.10;;;;;;10594847;27;20039;-76
2022/08/04 02:18:58;;;;;;;3.50;2.38;;;23.30;91.10;;;;;;10589266;27;20035;-76
2022/08/04 02:24:04;;;;;;;4.18;1.90;;;23.30;91.20;;;;;;10576186;27;20092;-76
2022/08/04 02:29:21;;;;;;;5.72;2.10;;;23.30;91.20;;;;;;10579465;27;20034;-76
2022/08/04 02:34:58;;;;;;;3.47;2.10;;;23.30;91.20;;;;;;10605722;27;20023;-76
2022/08/04 02:40:01;;;;;;;3.17;2.10;;;23.30;91.20;;;;;;10602115;27;20516;-76
2022/08/04 02:45:04;;;;;;;5.38;2.28;;;23.20;91.20;;;;;;10601514;27;20055;-76
2022/08/04 02:50:17;;;;;;;3.47;2.05;;;23.20;91.20;;;;;;10608699;27;20164;-76
2022/08/04 02:55:19;;;;;;;7.82;2.30;;;23.20;91.30;;;;;;10606393;27;20040;-76
2022/08/04 03:00:59;;;;;;;3.10;2.17;;;23.10;91.20;;;;;;10598346;27;20134;-76
2022/08/04 03:06:58;;;;;;;4.97;2.38;;;23.10;91.30;;;;;;10656035;27;20073;-76
2022/08/04 03:12:25;;;;;;;2.67;2.00;;;23.10;91.30;;;;;;10655335;27;20099;-76
2022/08/04 03:18:03;;;;;;;3.60;2.20;;;23.10;91.30;;;;;;10647255;27;20035;-76
2022/08/04 03:24:01;;;;;;;4.75;2.22;;;23.10;91.40;;;;;;10636060;27;20062;-77
2022/08/04 03:29:20;;;;;;;3.88;2.40;;;23.00;91.40;;;;;;10526977;28;20451;-76
2022/08/04 03:34:33;;;;;;;4.60;2.38;;;23.00;91.40;;;;;;10581285;27;20027;-76
2022/08/04 03:40:14;;;;;;;5.68;2.80;;;23.00;91.40;;;;;;10600076;27;20054;-76
2022/08/04 03:46:11;;;;;;;3.90;2.30;;;23.00;91.40;;;;;;10532208;27;20039;-76
2022/08/04 03:56:55;;;;;;;3.70;2.15;;;22.90;91.50;;;;;;10606514;27;19965;-76
2022/08/04 04:02:29;;;;;;;4.05;2.03;;;22.90;91.40;;;;;;10630272;27;20048;-76
2022/08/04 04:07:55;;;;;;;3.72;2.22;;;22.90;91.50;;;;;;10604476;27;20031;-76
2022/08/04 04:13:28;;;;;;;2.10;1.90;;;22.80;91.50;;;;;;10584237;27;20117;-76
2022/08/04 04:18:48;;;;;;;6.80;2.88;;;22.80;91.50;;;;;;10593533;27;20148;-76
2022/08/04 04:24:16;;;;;;;6.55;2.53;;;22.80;91.50;;;;;;10572348;27;20057;-76
2022/08/04 04:29:51;;;;;;;4.28;2.30;;;22.80;91.60;;;;;;10525842;27;21027;-76
2022/08/04 04:35:07;;;;;;;3.88;1.98;;;22.80;91.50;;;;;;10512575;27;20035;-76
2022/08/04 04:40:20;;;;;;;2.80;1.98;;;22.80;91.50;;;;;;10514308;27;20807;-76
2022/08/04 04:45:41;;;;;;;3.97;2.30;;;22.70;91.50;;;;;;10530561;27;20129;-76
2022/08/04 04:50:51;;;;;;;5.93;2.22;;;22.90;91.60;;;;;;10534012;27;20919;-74
2022/08/04 04:56:03;;;;;;;3.78;2.30;;;22.70;91.50;;;;;;10527032;27;20041;-73
2022/08/04 05:01:10;;;;;;;6.00;2.28;;;22.70;91.50;;;;;;10505944;27;20043;-73
2022/08/04 05:06:23;;;;;;;5.40;2.70;;;22.80;91.60;;;;;;10531351;27;20374;-74
2022/08/04 05:11:33;;;;;;;3.70;2.00;;;22.70;91.60;;;;;;10527401;27;20024;-75
2022/08/04 05:16:45;;;;;;;3.88;1.92;;;22.70;91.50;;;;;;10519923;27;20063;-75
2022/08/04 05:22:03;;;;;;;3.97;2.20;;;22.70;91.60;;;;;;10511454;27;20066;-72
2022/08/04 05:27:11;;;;;;;4.78;2.33;;;22.70;91.60;;;;;;10534797;27;20174;-73
2022/08/04 05:32:14;;;;;;;3.70;2.53;;;22.70;91.50;;;;;;10520883;27;20035;-78
2022/08/04 05:37:19;;;;;;;3.20;2.25;;;22.70;91.50;;;;;;10488267;27;20116;-73
2022/08/04 05:42:21;;;;;;;3.28;2.08;;;22.70;91.50;;;;;;10512503;27;20016;-72
2022/08/04 05:48:01;;;;;;;3.80;2.53;;;22.70;91.50;;;;;;10506311;27;20147;-73
2022/08/04 05:54:02;;;;;;;2.67;2.05;;;22.70;91.60;;;;;;10520670;27;20031;-78
2022/08/04 06:00:03;;;;;;;3.60;2.20;;;22.70;91.60;;;;;;10521970;27;20047;-74
2022/08/04 06:06:03;;;;;;;2.70;2.30;;;22.70;91.70;;;;;;10512494;27;20043;-76
2022/08/04 06:12:03;;;;;;;6.18;2.22;;;22.70;91.70;;;;;;10510721;27;20035;-75
2022/08/04 06:18:10;;;;;;;3.40;2.05;;;22.70;91.60;;;;;;10510234;27;20043;-73
2022/08/04 06:24:10;;;;;;;3.75;2.15;;;22.80;91.60;;;;;;10519976;27;20100;-75
2022/08/04 06:30:13;;;;;;;3.33;2.33;;;22.80;91.60;;;;;;10516783;27;20042;-74
2022/08/04 06:36:12;;;;;;;4.63;2.30;;;22.80;91.50;;;;;;10533331;27;20039;-73
2022/08/04 06:42:12;;;;;;;3.15;2.40;;;22.80;91.60;;;;;;10530351;27;20035;-71
2022/08/04 06:48:12;;;;;;;2.90;2.00;;;22.90;91.70;;;;;;10531257;27;20496;-72
2022/08/04 06:54:12;;;;;;;5.22;2.47;;;22.90;91.60;;;;;;10530484;27;20027;-71
2022/08/04 07:00:22;;;;;;;4.55;3.13;;;23.00;91.60;;;;;;10544952;27;20048;-73
2022/08/04 07:06:22;;;;;;;5.75;3.25;;;23.00;91.50;;;;;;10552269;28;20035;-72
2022/08/04 07:12:22;;;;;;;5.57;2.50;;;23.10;91.50;;;;;;10555005;28;20040;-71
2022/08/04 07:18:24;;;;;;;5.00;2.78;;;23.10;91.70;;;;;;10518986;28;20047;-72
2022/08/04 07:24:25;;;;;;;3.58;2.50;;;23.10;91.70;;;;;;10525529;27;20743;-76
2022/08/04 07:29:47;;;;;;;5.07;2.67;;;23.20;91.70;;;;;;10524570;27;20035;-74
2022/08/04 07:46:47;;;;;;;4.07;2.72;;;23.30;91.80;;;;;;10438772;28;20048;-81
2022/08/04 07:52:27;;;;;;;5.25;2.47;;;23.30;91.50;;;;;;10452296;28;20043;-79
2022/08/04 07:58:28;;;;;;;6.07;3.08;;;23.40;91.60;;;;;;10467157;28;20044;-80
2022/08/04 08:04:28;;;;;;;4.15;2.42;;;23.50;91.60;;;;;;10461483;28;21015;-80
2022/08/04 08:10:29;;;;;;;4.22;2.35;;;23.50;91.50;;;;;;10455591;28;20040;-80
2022/08/04 08:16:32;;;;;;;5.25;2.58;;;23.60;91.50;;;;;;10457600;28;20154;-79
2022/08/04 08:22:30;;;;;;;3.70;2.25;;;23.60;91.60;;;;;;10450262;28;20040;-79
2022/08/04 08:28:30;;;;;;;3.90;2.22;;;23.70;91.60;;;;;;10462715;28;20036;-80
2022/08/04 08:34:31;;;;;;;5.05;2.50;;;23.70;91.50;;;;;;10458090;28;20037;-80
2022/08/04 08:40:20;;;;;;;3.65;2.58;;;23.70;91.50;;;;;;10465668;28;20055;-80
2022/08/04 08:45:40;;;;;;;3.67;2.33;;;23.80;91.60;;;;;;10458802;28;20243;-80
2022/08/04 08:51:23;;;;;;;4.57;2.88;;;23.80;91.60;;;;;;10443279;28;20036;-79
2022/08/04 08:57:12;;;;;;;2.95;2.55;;;23.80;91.60;;;;;;10446440;28;20053;-73
2022/08/04 09:02:50;;;;;;;4.85;2.20;;;23.90;91.60;;;;;;10448107;28;20033;-72
2022/08/04 09:08:21;;;;;;;4.20;2.28;;;24.00;91.60;;;;;;10408900;28;20044;-71
2022/08/04 09:14:04;;;;;;;4.78;2.40;;;24.00;91.60;;;;;;10429634;28;20113;-71
2022/08/04 09:20:16;;;;;;;4.63;2.58;;;24.10;91.60;;;;;;10436325;28;20040;-72
2022/08/04 09:26:17;;;;;;;2.85;2.10;;;24.10;91.70;;;;;;10421146;28;20036;-70
2022/08/04 09:32:09;;;;;;;2.83;2.33;;;24.10;91.70;;;;;;10424968;28;20479;-69
2022/08/04 09:37:30;;;;;;;4.82;2.03;;;24.20;91.70;;;;;;10427136;28;20039;-70
2022/08/04 09:43:37;;;;;;;5.70;2.50;;;24.20;91.60;;;;;;10425536;28;20056;-69
2022/08/04 09:49:18;;;;;;;;;;;24.20;91.90;;;;;;10489065;28;20053;-72
2022/08/04 09:54:39;;;;;;;3.22;1.95;;;24.20;91.90;;;;;;10483521;28;19916;-70
2022/08/04 10:00:45;;;;;;;3.90;2.00;;;24.20;91.70;;;;;;10451498;28;20056;-70
2022/08/04 10:06:44;;;;;;;4.03;2.20;;;24.30;91.80;;;;;;10447559;28;20159;-69
2022/08/04 10:12:10;;;;;;;3.92;2.13;;;24.40;91.80;;;;;;10433491;28;20024;-70
2022/08/04 10:17:38;;;;;;;4.10;1.90;;;24.40;91.90;;;;;;10439315;28;20131;-71
2022/08/04 10:22:55;;;;;;;5.80;2.60;;;24.40;91.90;;;;;;10437109;28;20495;-70
2022/08/04 10:28:45;;;;;;;5.85;2.38;;;24.50;91.70;;;;;;10459022;28;21009;-77
2022/08/04 10:35:03;;;;;;;2.95;1.70;;;24.60;91.80;;;;;;10447129;28;20068;-72
2022/08/04 10:40:59;;;;;;;2.35;1.83;;;24.70;91.80;;;;;;10452465;28;20067;-73
2022/08/04 10:47:09;;;;;;;2.28;1.52;;;24.70;91.80;;;;;;10435391;28;20048;-77
2022/08/04 10:52:32;;;;;;;7.72;2.08;;;24.70;91.80;;;;;;10433677;28;20624;-85
2022/08/04 10:58:01;;;;;;;3.55;1.50;;;24.80;91.70;;;;;;10446752;28;20137;-82
2022/08/04 11:03:19;;;;;;;2.97;1.60;;;24.80;91.70;;;;;;10416575;28;20151;-77
2022/08/04 11:08:34;;;;;;;3.38;1.98;;;24.90;91.70;;;;;;10448694;28;20287;-74
2022/08/04 11:14:02;;;;;;;3.22;1.98;;;24.90;91.70;;;;;;10435591;28;20583;-75
2022/08/04 11:19:30;;;;;;;4.70;1.60;;;24.90;91.70;;;;;;10419626;28;20245;-75
2022/08/04 11:24:51;;;;;;;3.28;1.65;;;24.90;91.70;;;;;;10402214;28;20036;-75
2022/08/04 11:30:05;;;;;;;1.40;1.30;;;24.90;91.60;;;;;;10440180;28;20089;-76
2022/08/04 11:35:12;;;;;;;2.65;1.55;;;25.00;91.60;;;;;;10446049;28;20600;-75
2022/08/04 11:40:28;;;;;;;3.00;1.63;;;24.90;91.60;;;;;;10446274;28;20147;-75
2022/08/04 11:45:46;;;;;;;3.33;1.60;;;24.90;91.60;;;;;;10421679;28;20326;-74
2022/08/04 11:50:55;;;;;;;3.33;1.50;;;24.80;91.50;;;;;;10425982;28;20573;-75
2022/08/04 11:56:16;;;;;;;2.70;1.58;;;24.80;91.60;;;;;;10444078;28;20044;-73
2022/08/04 12:01:41;;;;;;;1.98;1.77;;;24.80;91.70;;;;;;10436369;28;20151;-73
2022/08/04 12:07:13;;;;;;;3.58;1.33;;;24.80;91.70;;;;;;10446637;28;20596;-74
2022/08/04 12:12:36;;;;;;;2.35;1.52;;;24.70;91.70;;;;;;10439914;28;20075;-74
2022/08/04 12:18:02;;;;;;;2.33;1.33;;;24.60;91.80;;;;;;10442879;28;20044;-75
2022/08/04 12:23:13;;;;;;;3.97;1.45;;;24.70;91.80;;;;;;10458824;28;20636;-74
2022/08/04 12:28:45;;;;;;;1.90;1.40;;;24.70;91.80;;;;;;10449126;28;20029;-74
2022/08/04 12:33:58;;;;;;;1.60;1.50;;;24.70;91.60;;;;;;10449250;28;20044;-74
2022/08/04 12:39:17;;;;;;;2.33;1.30;;;24.80;91.50;;;;;;10438264;28;20198;-74
2022/08/04 12:44:25;;;;;;;1.47;1.20;;;24.80;91.40;;;;;;10434347;28;20044;-73
2022/08/04 12:49:34;;;;;;;1.85;1.38;;;24.80;91.30;;;;;;10440123;28;20032;-73
2022/08/04 12:54:52;;;;;;;2.20;1.27;;;24.60;91.20;;;;;;10445346;28;20075;-73
2022/08/04 13:00:10;;;;;;;2.05;1.20;;;24.90;91.20;;;;;;10444503;28;20332;-79
2022/08/04 13:05:31;;;;;;;1.92;1.10;;;25.10;90.50;;;;;;10429690;28;20043;-76
2022/08/04 13:10:45;;;;;;;2.63;1.00;;;25.50;88.40;;;;;;10426746;28;20552;-77
2022/08/04 13:16:00;;;;;;;3.00;1.25;;;25.70;86.90;;;;;;10442414;28;20328;-80
2022/08/04 13:21:22;;;;;;;4.43;1.30;;;25.70;83.10;;;;;;10453996;28;20159;-78
2022/08/04 13:26:25;;;;;;;2.45;1.23;;;25.80;83.90;;;;;;10446665;28;20040;-77
2022/08/04 13:31:27;;;;;;;3.35;1.23;;;25.80;84.60;;;;;;10427784;28;20035;-77
2022/08/04 13:36:30;;;;;;;3.03;1.60;;;25.90;84.60;;;;;;10431954;28;20660;-77
2022/08/04 13:41:42;;;;;;;2.85;1.30;;;26.20;83.90;;;;;;10430537;28;20113;-77
2022/08/04 13:46:54;;;;;;;2.60;1.48;;;26.20;82.10;;;;;;10434623;28;20902;-77
2022/08/04 13:52:02;;;;;;;1.38;1.20;;;26.30;82.00;;;;;;10443097;28;20052;-80
2022/08/04 13:57:09;;;;;;;2.35;1.13;;;26.50;81.60;;;;;;10446806;28;20087;-75
2022/08/04 14:02:28;;;;;;;2.03;1.10;;;26.70;81.00;;;;;;10450815;28;20338;-76
2022/08/04 14:07:31;;;;;;;2.45;1.10;;;26.70;77.80;;;;;;10429631;28;20497;-76
2022/08/04 14:12:32;;;;;;;3.10;1.10;;;26.70;80.20;;;;;;10438514;28;20652;-74
2022/08/04 14:17:33;;;;;;;2.45;1.33;;;26.80;80.30;;;;;;10446668;28;20040;-73
2022/08/04 14:22:35;;;;;;;2.67;1.30;;;26.90;79.70;;;;;;10445928;28;20297;-79
2022/08/04 14:27:50;;;;;;;5.55;1.50;;;26.80;80.00;;;;;;10423610;28;20025;-85
2022/08/04 14:33:10;;;;;;;4.35;1.45;;;26.80;80.00;;;;;;10435826;28;20529;-79
2022/08/04 14:38:11;;;;;;;1.10;1.00;;;26.80;80.20;;;;;;10427904;28;20482;-83
2022/08/04 14:43:16;;;;;;;1.13;1.00;;;26.90;80.90;;;;;;10479432;28;20048;-84
2022/08/04 14:48:17;;;;;;;2.00;1.00;;;26.90;80.90;;;;;;10513857;28;20574;-84
2022/08/04 14:53:25;;;;;;;2.88;1.30;;;27.00;81.30;;;;;;10494337;28;20039;-84
2022/08/04 14:58:31;;;;;;;1.08;0.98;;;27.10;81.30;;;;;;10522049;28;20561;-85
2022/08/04 15:03:32;;;;;;;1.65;1.20;;;27.10;81.20;;;;;;10487782;28;20033;-84
2022/08/04 15:08:33;;;;;;;2.13;1.15;;;27.20;81.50;;;;;;10484955;28;20036;-84
2022/08/04 15:13:34;;;;;;;2.15;1.13;;;27.20;81.40;;;;;;10476898;28;20139;-84
2022/08/04 15:18:38;;;;;;;1.20;1.10;;;27.30;81.50;;;;;;10478474;28;20101;-84
2022/08/04 15:23:38;;;;;;;3.15;1.30;;;27.40;81.70;;;;;;10520948;28;20477;-84
2022/08/04 15:28:43;;;;;;;1.52;1.10;;;27.50;81.70;;;;;;10504596;28;20071;-84
2022/08/04 15:33:51;;;;;;;1.45;0.98;;;27.50;81.70;;;;;;10483508;28;20479;-84
2022/08/04 15:39:08;;;;;;;1.77;1.00;;;27.50;81.90;;;;;;10479368;28;20592;-83
2022/08/04 15:44:20;;;;;;;1.95;1.15;;;27.60;82.10;;;;;;10517630;28;20040;-84
2022/08/04 15:50:02;;;;;;;2.55;1.00;;;27.60;82.00;;;;;;10497087;28;20051;-83
2022/08/04 15:56:11;;;;;;;1.17;1.05;;;27.70;81.70;;;;;;10510075;28;20438;-83
2022/08/04 16:02:11;;;;;;;1.52;1.20;;;27.80;82.10;;;;;;10510687;28;20169;-83
2022/08/04 16:08:15;;;;;;;1.27;1.00;;;27.80;82.50;;;;;;10515893;28;20051;-83
2022/08/04 16:14:02;;;;;;;0.93;0.80;;;27.70;82.80;;;;;;10512172;28;20036;-83
2022/08/04 16:20:21;;;;;;;2.88;1.15;;;27.70;82.90;;;;;;10495048;28;20282;-83
2022/08/04 16:26:24;;;;;;;1.40;0.82;;;27.70;83.20;;;;;;10493045;28;20044;-84
2022/08/04 16:32:05;;;;;;;0.95;0.80;;;27.60;83.40;;;;;;10526486;28;20029;-83
2022/08/04 16:37:31;;;;;;;2.28;1.10;;;27.50;83.60;;;;;;10550055;28;20044;-83
2022/08/04 16:43:32;;;;;;;1.48;0.77;;;27.40;83.70;;;;;;10565732;28;20063;-83
2022/08/04 16:49:45;;;;;;;0.95;0.80;;;27.30;83.80;;;;;;10549740;28;20060;-84
2022/08/04 19:34:47;;;;;;;3.00;1.30;;;25.70;87.50;;;;;;10442262;28;20055;-81
2022/08/04 19:39:48;;;;;;;1.65;1.15;;;25.60;87.70;;;;;;10530094;28;20070;-78
2022/08/04 19:45:28;;;;;;;2.03;1.23;;;25.60;87.80;;;;;;10522187;28;20127;-78
2022/08/04 19:50:49;;;;;;;3.05;1.15;;;25.60;87.80;;;;;;10491386;28;20069;-79
2022/08/04 19:55:50;;;;;;;2.00;1.30;;;25.50;87.80;;;;;;10525151;28;20030;-80
2022/08/04 20:01:36;;;;;;;1.35;1.05;;;25.50;87.90;;;;;;10572636;28;20433;-79
2022/08/04 20:07:36;;;;;;;3.92;1.30;;;25.40;87.60;;;;;;10573529;28;20047;-79
2022/08/04 20:13:37;;;;;;;1.67;1.13;;;25.30;87.70;;;;;;10570962;28;20051;-79
2022/08/04 20:19:37;;;;;;;1.70;1.20;;;25.30;87.40;;;;;;10573956;28;20086;-78
2022/08/04 20:25:18;;;;;;;2.53;1.30;;;25.20;87.30;;;;;;10572650;28;20040;-83
2022/08/04 20:30:58;;;;;;;3.97;1.27;;;25.20;87.30;;;;;;10537814;28;20036;-81
2022/08/04 20:36:59;;;;;;;2.42;1.20;;;25.10;87.60;;;;;;10550128;28;20048;-81
2022/08/04 20:42:59;;;;;;;2.50;1.40;;;25.10;87.60;;;;;;10543599;28;20063;-81
2022/08/04 20:49:00;;;;;;;1.88;1.33;;;25.00;87.60;;;;;;10537554;28;20039;-82
2022/08/04 20:55:00;;;;;;;1.80;1.27;;;25.00;87.70;;;;;;10557899;28;20107;-80
2022/08/04 21:00:36;;;;;;;2.70;1.20;;;24.90;87.70;;;;;;10545076;28;20059;-82
2022/08/04 21:06:17;;;;;;;1.70;1.20;;;24.80;87.60;;;;;;10568604;28;20122;-81
2022/08/04 21:12:17;;;;;;;1.80;1.25;;;24.80;87.60;;;;;;10557933;28;20482;-76
2022/08/04 21:18:18;;;;;;;1.77;1.42;;;24.80;87.60;;;;;;10553467;28;20540;-80
2022/08/04 21:24:18;;;;;;;3.63;1.40;;;24.70;87.70;;;;;;10563365;28;20036;-81
2022/08/04 21:30:19;;;;;;;3.20;1.30;;;24.70;87.60;;;;;;10550066;28;20036;-81
2022/08/04 21:41:22;;;;;;;1.80;1.67;;;24.60;87.70;;;;;;10603257;27;20051;-80
2022/08/04 21:46:22;;;;;;;3.38;1.38;;;24.50;87.70;;;;;;10634479;27;20634;-82
2022/08/04 21:51:25;;;;;;;2.42;1.13;;;24.50;87.70;;;;;;10625849;27;20027;-81
2022/08/04 21:56:26;;;;;;;2.42;1.40;;;24.40;87.60;;;;;;10637311;27;20023;-81
2022/08/04 22:01:27;;;;;;;2.38;1.27;;;24.40;87.70;;;;;;10651072;27;20549;-81
2022/08/04 22:06:28;;;;;;;1.65;1.40;;;24.40;87.60;;;;;;10639798;27;20035;-81
2022/08/04 22:11:35;;;;;;;1.90;1.20;;;24.30;87.60;;;;;;10622965;27;20122;-81
2022/08/04 22:16:36;;;;;;;2.17;1.42;;;24.30;87.60;;;;;;10634521;27;20122;-81
2022/08/04 22:21:37;;;;;;;1.85;1.30;;;24.30;87.60;;;;;;10647000;27;20152;-81
2022/08/04 22:26:38;;;;;;;2.38;1.38;;;24.20;87.50;;;;;;10638215;27;20034;-81
2022/08/04 22:31:38;;;;;;;2.40;1.17;;;24.20;87.60;;;;;;10644162;27;20053;-81
2022/08/04 22:36:39;;;;;;;2.75;1.17;;;24.20;87.60;;;;;;10639142;27;20031;-82
2022/08/04 22:41:40;;;;;;;2.00;1.10;;;24.10;87.50;;;;;;10641127;27;20482;-82
2022/08/04 22:46:40;;;;;;;2.55;1.38;;;24.10;87.60;;;;;;10650903;27;20070;-80
2022/08/04 22:51:41;;;;;;;3.70;1.55;;;24.10;87.60;;;;;;10653036;27;20049;-80
2022/08/04 22:56:42;;;;;;;2.13;1.20;;;24.00;87.60;;;;;;10631863;27;20122;-80
2022/08/04 23:01:43;;;;;;;2.35;1.40;;;24.00;87.60;;;;;;10625693;27;20135;-79
2022/08/04 23:07:23;;;;;;;7.78;1.65;;;24.00;87.60;;;;;;10621558;27;20042;-80
2022/08/04 23:13:24;;;;;;;2.15;1.30;;;24.00;87.40;;;;;;10637899;27;20030;-80
2022/08/04 23:19:24;;;;;;;2.70;1.50;;;23.90;87.50;;;;;;10636669;27;20208;-81
2022/08/04 23:25:24;;;;;;;1.55;1.20;;;23.90;87.60;;;;;;10677876;27;20358;-81
2022/08/04 23:31:25;;;;;;;3.20;1.55;;;23.80;87.50;;;;;;10684289;27;20049;-80
2022/08/04 23:37:25;;;;;;;2.17;1.40;;;23.80;87.50;;;;;;10688617;27;20125;-80
2022/08/04 23:43:26;;;;;;;4.03;1.60;;;23.80;87.60;;;;;;10679930;27;20043;-80
2022/08/04 23:49:29;;;;;;;3.17;1.50;;;23.80;87.70;;;;;;10668566;27;20065;-80
2022/08/04 23:55:30;;;;;;;3.83;1.30;;;23.70;87.60;;;;;;10665404;27;20033;-80
